首页
METAR-TAF:

METAR-TAF

机场 :

Watson Lake, 育康省, 加拿大

纬度: 60-07N, 经度: 128-49W, 海拔: 690米

当前天气观测

该预报发布于40分钟前的07:00 UTC
风速3节,风向西南
温度 7°C
湿度 93%
气压 1008 hPa
能見度: 24.1公里
散云层高于4000英尺
阴天层高于6100英尺

METAR: CYQH 010700Z 22003KT 15SM SCT040 OVC061 07/06 A2977 RMK CU3SC5 SLP103

时间: 00:40 (07:40 UTC)

预报

该预报发布于2小时和2分钟前的05:38 UTC
预报有效从01日的 06点(UTC)到 01日的 18点(UTC)
风速5节,风向东南
能見度: 10公里
散云层高于5000英尺
多云层高于10000英尺
短暂存在
从 01日的 06点(UTC)到 01日的 10点(UTC)
能見度: 10公里
多云层高于5000英尺
小阵雨
从 01日的 1000点(UTC)
风速6节,风向西转西南
能見度: 10公里
散云层高于5000英尺
多云层高于10000英尺
短暂存在
从 01日的 10点(UTC)到 01日的 18点(UTC)
多云层高于5000英尺

TAF: CYQH 010538Z 0106/0118 13005KT P6SM SCT050 BKN100 TEMPO 0106/0110 P6SM -SHRA BKN050 FM011000 25006KT P6SM SCT050 BKN100 TEMPO 0110/0118 BKN050 RMK NXT FCST BY 011200Z

超过4000个机场的气象观测和天气预报(METAR&TAF报告)。

可查询的气象台以黄色和红色小点在地图上表示。

将鼠标移到小点上方,可查看气象台名称。

然后点击查看天气观测和预报。

如需切换地图:点击带黑十字的绿色按钮放大地图;点击带横线的绿色按钮缩小地图;或者点击绿色箭头查看邻近地区的地图。


METAR-TAF: